sensor_id;sensor_type;location;lat;lon;timestamp;P1;durP1;ratioP1;P2;durP2;ratioP2
6288;SDS011;3177;49.880;8.836;2023-05-13T00:01:41;4.40;;;4.07;;
6288;SDS011;3177;49.880;8.836;2023-05-13T00:04:09;6.27;;;3.90;;
6288;SDS011;3177;49.880;8.836;2023-05-13T00:06:36;6.50;;;4.40;;
6288;SDS011;3177;49.880;8.836;2023-05-13T00:09:03;6.23;;;4.70;;
6288;SDS011;3177;49.880;8.836;2023-05-13T00:11:30;5.43;;;4.30;;
6288;SDS011;3177;49.880;8.836;2023-05-13T00:13:57;6.33;;;4.87;;
6288;SDS011;3177;49.880;8.836;2023-05-13T00:16:26;8.93;;;4.97;;
6288;SDS011;3177;49.880;8.836;2023-05-13T00:18:53;5.50;;;4.43;;
6288;SDS011;3177;49.880;8.836;2023-05-13T00:21:20;6.10;;;4.67;;
6288;SDS011;3177;49.880;8.836;2023-05-13T00:23:48;7.27;;;4.80;;
6288;SDS011;3177;49.880;8.836;2023-05-13T00:26:15;5.73;;;4.30;;
6288;SDS011;3177;49.880;8.836;2023-05-13T00:28:42;4.60;;;4.20;;
6288;SDS011;3177;49.880;8.836;2023-05-13T00:31:09;5.17;;;4.70;;
6288;SDS011;3177;49.880;8.836;2023-05-13T00:33:37;5.77;;;5.30;;
6288;SDS011;3177;49.880;8.836;2023-05-13T00:36:05;4.50;;;4.10;;
6288;SDS011;3177;49.880;8.836;2023-05-13T00:38:34;4.80;;;4.20;;
6288;SDS011;3177;49.880;8.836;2023-05-13T00:41:01;4.40;;;4.00;;
6288;SDS011;3177;49.880;8.836;2023-05-13T00:43:28;4.30;;;3.90;;
6288;SDS011;3177;49.880;8.836;2023-05-13T00:45:55;7.10;;;4.00;;
6288;SDS011;3177;49.880;8.836;2023-05-13T00:48:22;4.40;;;4.00;;
6288;SDS011;3177;49.880;8.836;2023-05-13T00:50:51;4.30;;;4.00;;
6288;SDS011;3177;49.880;8.836;2023-05-13T00:53:18;6.97;;;4.40;;
6288;SDS011;3177;49.880;8.836;2023-05-13T00:55:45;4.50;;;4.10;;
6288;SDS011;3177;49.880;8.836;2023-05-13T00:58:12;4.80;;;4.37;;
6288;SDS011;3177;49.880;8.836;2023-05-13T01:00:43;6.03;;;4.10;;
6288;SDS011;3177;49.880;8.836;2023-05-13T01:03:12;6.23;;;4.20;;
6288;SDS011;3177;49.880;8.836;2023-05-13T01:05:41;8.03;;;3.60;;
6288;SDS011;3177;49.880;8.836;2023-05-13T01:08:13;4.20;;;3.90;;
6288;SDS011;3177;49.880;8.836;2023-05-13T01:10:43;4.57;;;4.17;;
6288;SDS011;3177;49.880;8.836;2023-05-13T01:13:12;6.60;;;4.80;;
6288;SDS011;3177;49.880;8.836;2023-05-13T01:15:43;5.30;;;4.70;;
6288;SDS011;3177;49.880;8.836;2023-05-13T01:18:12;6.57;;;4.63;;
6288;SDS011;3177;49.880;8.836;2023-05-13T01:20:41;4.83;;;4.20;;
6288;SDS011;3177;49.880;8.836;2023-05-13T01:23:09;4.80;;;4.40;;
6288;SDS011;3177;49.880;8.836;2023-05-13T01:25:36;5.27;;;4.73;;
6288;SDS011;3177;49.880;8.836;2023-05-13T01:28:04;6.10;;;4.80;;
6288;SDS011;3177;49.880;8.836;2023-05-13T01:30:31;6.43;;;4.80;;
6288;SDS011;3177;49.880;8.836;2023-05-13T01:32:58;5.30;;;4.80;;
6288;SDS011;3177;49.880;8.836;2023-05-13T01:35:25;5.73;;;4.83;;
6288;SDS011;3177;49.880;8.836;2023-05-13T01:37:54;4.20;;;3.80;;
6288;SDS011;3177;49.880;8.836;2023-05-13T01:40:24;4.83;;;4.30;;
6288;SDS011;3177;49.880;8.836;2023-05-13T01:42:51;6.07;;;4.63;;
6288;SDS011;3177;49.880;8.836;2023-05-13T01:45:18;4.97;;;4.57;;
6288;SDS011;3177;49.880;8.836;2023-05-13T01:47:45;5.87;;;5.33;;
6288;SDS011;3177;49.880;8.836;2023-05-13T01:50:12;7.27;;;5.33;;
6288;SDS011;3177;49.880;8.836;2023-05-13T01:52:40;4.80;;;4.37;;
6288;SDS011;3177;49.880;8.836;2023-05-13T01:55:07;4.40;;;4.00;;
6288;SDS011;3177;49.880;8.836;2023-05-13T01:57:36;4.93;;;4.43;;
6288;SDS011;3177;49.880;8.836;2023-05-13T02:00:03;4.90;;;4.50;;
6288;SDS011;3177;49.880;8.836;2023-05-13T02:04:57;5.77;;;4.63;;
6288;SDS011;3177;49.880;8.836;2023-05-13T02:07:24;5.63;;;4.50;;
6288;SDS011;3177;49.880;8.836;2023-05-13T02:09:52;5.13;;;4.73;;
6288;SDS011;3177;49.880;8.836;2023-05-13T02:12:23;7.90;;;5.57;;
6288;SDS011;3177;49.880;8.836;2023-05-13T02:14:52;6.80;;;5.63;;
6288;SDS011;3177;49.880;8.836;2023-05-13T02:17:19;7.57;;;5.53;;
6288;SDS011;3177;49.880;8.836;2023-05-13T02:19:46;5.30;;;4.80;;
6288;SDS011;3177;49.880;8.836;2023-05-13T02:22:13;5.23;;;4.57;;
6288;SDS011;3177;49.880;8.836;2023-05-13T02:24:40;5.03;;;4.53;;
6288;SDS011;3177;49.880;8.836;2023-05-13T02:27:07;4.80;;;4.40;;
6288;SDS011;3177;49.880;8.836;2023-05-13T02:29:36;6.70;;;5.47;;
6288;SDS011;3177;49.880;8.836;2023-05-13T02:32:05;6.40;;;5.20;;
6288;SDS011;3177;49.880;8.836;2023-05-13T02:34:33;6.07;;;5.47;;
6288;SDS011;3177;49.880;8.836;2023-05-13T02:37:01;5.23;;;4.80;;
6288;SDS011;3177;49.880;8.836;2023-05-13T02:39:29;4.70;;;4.30;;
6288;SDS011;3177;49.880;8.836;2023-05-13T02:41:56;5.47;;;4.83;;
6288;SDS011;3177;49.880;8.836;2023-05-13T02:44:23;5.40;;;4.90;;
6288;SDS011;3177;49.880;8.836;2023-05-13T02:46:50;4.97;;;4.57;;
6288;SDS011;3177;49.880;8.836;2023-05-13T02:49:19;4.70;;;4.30;;
6288;SDS011;3177;49.880;8.836;2023-05-13T02:51:46;5.33;;;4.77;;
6288;SDS011;3177;49.880;8.836;2023-05-13T02:54:13;5.87;;;4.83;;
6288;SDS011;3177;49.880;8.836;2023-05-13T02:56:40;5.63;;;5.00;;
6288;SDS011;3177;49.880;8.836;2023-05-13T02:59:07;4.60;;;4.20;;
6288;SDS011;3177;49.880;8.836;2023-05-13T03:01:35;4.70;;;4.30;;
6288;SDS011;3177;49.880;8.836;2023-05-13T03:04:02;12.77;;;4.40;;
6288;SDS011;3177;49.880;8.836;2023-05-13T03:06:30;5.33;;;4.63;;
6288;SDS011;3177;49.880;8.836;2023-05-13T03:08:58;4.63;;;4.23;;
6288;SDS011;3177;49.880;8.836;2023-05-13T03:11:25;3.77;;;3.47;;
6288;SDS011;3177;49.880;8.836;2023-05-13T03:13:52;4.67;;;4.17;;
6288;SDS011;3177;49.880;8.836;2023-05-13T03:16:19;5.73;;;3.93;;
6288;SDS011;3177;49.880;8.836;2023-05-13T03:18:46;4.90;;;4.50;;
6288;SDS011;3177;49.880;8.836;2023-05-13T03:21:13;4.83;;;4.33;;
6288;SDS011;3177;49.880;8.836;2023-05-13T03:23:41;5.47;;;4.70;;
6288;SDS011;3177;49.880;8.836;2023-05-13T03:26:08;7.10;;;4.80;;
6288;SDS011;3177;49.880;8.836;2023-05-13T03:28:35;5.10;;;4.60;;
6288;SDS011;3177;49.880;8.836;2023-05-13T03:31:03;5.17;;;4.67;;
6288;SDS011;3177;49.880;8.836;2023-05-13T03:33:30;5.30;;;4.80;;
6288;SDS011;3177;49.880;8.836;2023-05-13T03:35:57;6.73;;;4.90;;
6288;SDS011;3177;49.880;8.836;2023-05-13T03:38:24;5.70;;;5.20;;
6288;SDS011;3177;49.880;8.836;2023-05-13T03:40:52;5.40;;;4.90;;
6288;SDS011;3177;49.880;8.836;2023-05-13T03:43:19;8.80;;;5.47;;
6288;SDS011;3177;49.880;8.836;2023-05-13T03:45:46;6.40;;;4.67;;
6288;SDS011;3177;49.880;8.836;2023-05-13T03:48:15;6.73;;;5.33;;
6288;SDS011;3177;49.880;8.836;2023-05-13T03:50:42;5.60;;;5.00;;
6288;SDS011;3177;49.880;8.836;2023-05-13T03:53:09;5.50;;;4.93;;
6288;SDS011;3177;49.880;8.836;2023-05-13T03:55:37;5.13;;;4.63;;
6288;SDS011;3177;49.880;8.836;2023-05-13T03:58:10;5.23;;;4.73;;
6288;SDS011;3177;49.880;8.836;2023-05-13T04:00:38;5.37;;;4.87;;
6288;SDS011;3177;49.880;8.836;2023-05-13T04:03:05;5.37;;;4.80;;
6288;SDS011;3177;49.880;8.836;2023-05-13T04:05:32;5.13;;;4.70;;
6288;SDS011;3177;49.880;8.836;2023-05-13T04:07:59;5.40;;;4.90;;
6288;SDS011;3177;49.880;8.836;2023-05-13T04:10:27;5.10;;;4.70;;
6288;SDS011;3177;49.880;8.836;2023-05-13T04:12:54;4.90;;;4.27;;
6288;SDS011;3177;49.880;8.836;2023-05-13T04:15:22;4.90;;;4.50;;
6288;SDS011;3177;49.880;8.836;2023-05-13T04:17:50;5.23;;;4.73;;
6288;SDS011;3177;49.880;8.836;2023-05-13T04:20:17;5.33;;;4.83;;
6288;SDS011;3177;49.880;8.836;2023-05-13T04:22:45;5.43;;;4.93;;
6288;SDS011;3177;49.880;8.836;2023-05-13T04:25:12;5.80;;;5.30;;
6288;SDS011;3177;49.880;8.836;2023-05-13T04:27:39;5.93;;;4.90;;
6288;SDS011;3177;49.880;8.836;2023-05-13T04:30:06;5.90;;;5.33;;
6288;SDS011;3177;49.880;8.836;2023-05-13T04:32:35;7.17;;;5.00;;
6288;SDS011;3177;49.880;8.836;2023-05-13T04:35:03;6.13;;;5.33;;
6288;SDS011;3177;49.880;8.836;2023-05-13T04:37:30;5.83;;;5.23;;
6288;SDS011;3177;49.880;8.836;2023-05-13T04:39:57;6.10;;;5.50;;
6288;SDS011;3177;49.880;8.836;2023-05-13T04:42:24;7.90;;;5.27;;
6288;SDS011;3177;49.880;8.836;2023-05-13T04:44:51;7.00;;;6.30;;
6288;SDS011;3177;49.880;8.836;2023-05-13T04:47:18;6.13;;;5.50;;
6288;SDS011;3177;49.880;8.836;2023-05-13T04:49:47;6.10;;;5.60;;
6288;SDS011;3177;49.880;8.836;2023-05-13T04:52:14;7.67;;;6.03;;
6288;SDS011;3177;49.880;8.836;2023-05-13T04:54:41;7.10;;;5.70;;
6288;SDS011;3177;49.880;8.836;2023-05-13T04:57:08;6.43;;;5.83;;
6288;SDS011;3177;49.880;8.836;2023-05-13T04:59:35;7.30;;;6.23;;
6288;SDS011;3177;49.880;8.836;2023-05-13T05:02:02;7.13;;;6.43;;
6288;SDS011;3177;49.880;8.836;2023-05-13T05:04:30;7.13;;;6.50;;
6288;SDS011;3177;49.880;8.836;2023-05-13T05:06:59;8.10;;;7.07;;
6288;SDS011;3177;49.880;8.836;2023-05-13T05:09:26;8.07;;;7.27;;
6288;SDS011;3177;49.880;8.836;2023-05-13T05:11:54;8.77;;;6.93;;
6288;SDS011;3177;49.880;8.836;2023-05-13T05:14:21;8.33;;;7.10;;
6288;SDS011;3177;49.880;8.836;2023-05-13T05:16:48;9.80;;;7.80;;
6288;SDS011;3177;49.880;8.836;2023-05-13T05:19:15;12.93;;;8.83;;
6288;SDS011;3177;49.880;8.836;2023-05-13T05:21:47;9.20;;;8.30;;
6288;SDS011;3177;49.880;8.836;2023-05-13T05:24:16;11.73;;;9.57;;
6288;SDS011;3177;49.880;8.836;2023-05-13T05:26:43;10.40;;;8.60;;
6288;SDS011;3177;49.880;8.836;2023-05-13T05:29:16;10.77;;;9.10;;
6288;SDS011;3177;49.880;8.836;2023-05-13T05:31:43;10.87;;;9.40;;
6288;SDS011;3177;49.880;8.836;2023-05-13T05:34:11;11.07;;;9.33;;
6288;SDS011;3177;49.880;8.836;2023-05-13T05:36:38;11.00;;;9.80;;
6288;SDS011;3177;49.880;8.836;2023-05-13T05:39:05;11.70;;;9.03;;
6288;SDS011;3177;49.880;8.836;2023-05-13T05:41:34;12.03;;;9.73;;
6288;SDS011;3177;49.880;8.836;2023-05-13T05:44:01;14.63;;;9.90;;
6288;SDS011;3177;49.880;8.836;2023-05-13T05:46:28;14.63;;;10.50;;
6288;SDS011;3177;49.880;8.836;2023-05-13T05:48:55;12.77;;;10.23;;
6288;SDS011;3177;49.880;8.836;2023-05-13T05:51:26;14.60;;;11.20;;
6288;SDS011;3177;49.880;8.836;2023-05-13T05:53:53;12.63;;;10.33;;
6288;SDS011;3177;49.880;8.836;2023-05-13T05:56:20;12.90;;;11.53;;
6288;SDS011;3177;49.880;8.836;2023-05-13T05:58:49;14.80;;;11.57;;
6288;SDS011;3177;49.880;8.836;2023-05-13T06:01:16;15.67;;;12.53;;
6288;SDS011;3177;49.880;8.836;2023-05-13T06:03:43;14.97;;;11.63;;
6288;SDS011;3177;49.880;8.836;2023-05-13T06:06:18;15.73;;;11.57;;
6288;SDS011;3177;49.880;8.836;2023-05-13T06:08:45;13.70;;;11.97;;
6288;SDS011;3177;49.880;8.836;2023-05-13T06:11:12;13.63;;;10.93;;
6288;SDS011;3177;49.880;8.836;2023-05-13T06:13:41;12.20;;;10.87;;
6288;SDS011;3177;49.880;8.836;2023-05-13T06:16:09;11.67;;;10.37;;
6288;SDS011;3177;49.880;8.836;2023-05-13T06:18:36;14.33;;;10.93;;
6288;SDS011;3177;49.880;8.836;2023-05-13T06:21:07;12.97;;;10.33;;
6288;SDS011;3177;49.880;8.836;2023-05-13T06:23:34;14.70;;;10.73;;
6288;SDS011;3177;49.880;8.836;2023-05-13T06:26:01;14.87;;;10.37;;
6288;SDS011;3177;49.880;8.836;2023-05-13T06:28:29;13.77;;;10.70;;
6288;SDS011;3177;49.880;8.836;2023-05-13T06:30:56;12.70;;;9.83;;
6288;SDS011;3177;49.880;8.836;2023-05-13T06:33:27;11.77;;;10.47;;
6288;SDS011;3177;49.880;8.836;2023-05-13T06:35:54;11.73;;;10.47;;
6288;SDS011;3177;49.880;8.836;2023-05-13T06:38:21;12.53;;;10.70;;
6288;SDS011;3177;49.880;8.836;2023-05-13T06:40:48;10.70;;;9.60;;
6288;SDS011;3177;49.880;8.836;2023-05-13T06:43:15;12.70;;;10.60;;
6288;SDS011;3177;49.880;8.836;2023-05-13T06:45:42;11.20;;;10.10;;
6288;SDS011;3177;49.880;8.836;2023-05-13T06:48:09;13.50;;;10.50;;
6288;SDS011;3177;49.880;8.836;2023-05-13T06:50:37;11.43;;;10.27;;
6288;SDS011;3177;49.880;8.836;2023-05-13T06:53:05;11.00;;;9.90;;
6288;SDS011;3177;49.880;8.836;2023-05-13T06:55:32;12.73;;;10.60;;
6288;SDS011;3177;49.880;8.836;2023-05-13T06:58:05;10.03;;;9.03;;
6288;SDS011;3177;49.880;8.836;2023-05-13T07:00:35;9.90;;;8.93;;
6288;SDS011;3177;49.880;8.836;2023-05-13T07:03:02;9.57;;;8.60;;
6288;SDS011;3177;49.880;8.836;2023-05-13T07:05:30;9.53;;;8.57;;
6288;SDS011;3177;49.880;8.836;2023-05-13T07:07:58;9.53;;;8.63;;
6288;SDS011;3177;49.880;8.836;2023-05-13T07:10:30;9.37;;;8.47;;
6288;SDS011;3177;49.880;8.836;2023-05-13T07:12:57;8.90;;;8.10;;
6288;SDS011;3177;49.880;8.836;2023-05-13T07:15:25;9.30;;;7.73;;
6288;SDS011;3177;49.880;8.836;2023-05-13T07:17:52;12.60;;;8.33;;
6288;SDS011;3177;49.880;8.836;2023-05-13T07:20:19;8.77;;;6.63;;
6288;SDS011;3177;49.880;8.836;2023-05-13T07:22:46;8.70;;;6.10;;
6288;SDS011;3177;49.880;8.836;2023-05-13T07:25:15;5.17;;;4.63;;
6288;SDS011;3177;49.880;8.836;2023-05-13T07:27:42;6.93;;;4.83;;
6288;SDS011;3177;49.880;8.836;2023-05-13T07:30:12;5.20;;;4.70;;
6288;SDS011;3177;49.880;8.836;2023-05-13T07:32:39;4.20;;;3.80;;
6288;SDS011;3177;49.880;8.836;2023-05-13T07:35:07;3.90;;;3.60;;
6288;SDS011;3177;49.880;8.836;2023-05-13T07:37:34;5.47;;;3.63;;
6288;SDS011;3177;49.880;8.836;2023-05-13T07:40:02;4.43;;;3.50;;
6288;SDS011;3177;49.880;8.836;2023-05-13T07:42:30;4.13;;;3.80;;
6288;SDS011;3177;49.880;8.836;2023-05-13T07:44:57;3.57;;;3.10;;
6288;SDS011;3177;49.880;8.836;2023-05-13T07:47:25;3.57;;;2.50;;
6288;SDS011;3177;49.880;8.836;2023-05-13T07:49:53;2.57;;;2.37;;
6288;SDS011;3177;49.880;8.836;2023-05-13T07:52:20;2.80;;;2.60;;
6288;SDS011;3177;49.880;8.836;2023-05-13T07:54:47;3.70;;;2.90;;
6288;SDS011;3177;49.880;8.836;2023-05-13T07:57:14;3.20;;;2.90;;
6288;SDS011;3177;49.880;8.836;2023-05-13T07:59:42;7.77;;;3.07;;
6288;SDS011;3177;49.880;8.836;2023-05-13T08:02:10;20.33;;;4.30;;
6288;SDS011;3177;49.880;8.836;2023-05-13T08:04:37;2.77;;;2.57;;
6288;SDS011;3177;49.880;8.836;2023-05-13T08:07:04;4.50;;;2.97;;
6288;SDS011;3177;49.880;8.836;2023-05-13T08:09:31;2.60;;;2.40;;
6288;SDS011;3177;49.880;8.836;2023-05-13T08:11:58;4.63;;;3.22;;
6288;SDS011;3177;49.880;8.836;2023-05-13T08:14:25;2.78;;;2.53;;
6288;SDS011;3177;49.880;8.836;2023-05-13T08:16:54;2.53;;;2.30;;
6288;SDS011;3177;49.880;8.836;2023-05-13T08:19:21;2.70;;;2.50;;
6288;SDS011;3177;49.880;8.836;2023-05-13T08:21:49;2.42;;;2.22;;
6288;SDS011;3177;49.880;8.836;2023-05-13T08:24:16;2.38;;;2.28;;
6288;SDS011;3177;49.880;8.836;2023-05-13T08:26:43;2.38;;;2.22;;
6288;SDS011;3177;49.880;8.836;2023-05-13T08:29:11;2.63;;;2.42;;
6288;SDS011;3177;49.880;8.836;2023-05-13T08:31:39;6.47;;;2.92;;
6288;SDS011;3177;49.880;8.836;2023-05-13T08:34:08;4.55;;;2.25;;
6288;SDS011;3177;49.880;8.836;2023-05-13T08:36:35;2.50;;;2.28;;
6288;SDS011;3177;49.880;8.836;2023-05-13T08:39:02;3.28;;;2.50;;
6288;SDS011;3177;49.880;8.836;2023-05-13T08:41:29;2.63;;;2.15;;
6288;SDS011;3177;49.880;8.836;2023-05-13T08:43:57;4.15;;;2.70;;
6288;SDS011;3177;49.880;8.836;2023-05-13T08:46:24;4.07;;;2.72;;
6288;SDS011;3177;49.880;8.836;2023-05-13T08:48:53;18.98;;;4.30;;
6288;SDS011;3177;49.880;8.836;2023-05-13T08:51:22;4.50;;;2.38;;
6288;SDS011;3177;49.880;8.836;2023-05-13T08:53:49;2.17;;;2.05;;
6288;SDS011;3177;49.880;8.836;2023-05-13T08:56:17;7.18;;;2.90;;
6288;SDS011;3177;49.880;8.836;2023-05-13T08:58:46;2.45;;;2.25;;
6288;SDS011;3177;49.880;8.836;2023-05-13T09:01:13;2.42;;;1.92;;
6288;SDS011;3177;49.880;8.836;2023-05-13T09:03:42;2.10;;;2.00;;
6288;SDS011;3177;49.880;8.836;2023-05-13T09:06:10;3.10;;;2.05;;
6288;SDS011;3177;49.880;8.836;2023-05-13T09:08:39;4.93;;;2.72;;
6288;SDS011;3177;49.880;8.836;2023-05-13T09:11:06;1.83;;;1.73;;
6288;SDS011;3177;49.880;8.836;2023-05-13T09:13:33;6.75;;;2.40;;
6288;SDS011;3177;49.880;8.836;2023-05-13T09:16:00;2.22;;;2.05;;
6288;SDS011;3177;49.880;8.836;2023-05-13T09:18:28;2.70;;;2.10;;
6288;SDS011;3177;49.880;8.836;2023-05-13T09:20:56;2.17;;;2.00;;
6288;SDS011;3177;49.880;8.836;2023-05-13T09:23:23;19.48;;;3.80;;
6288;SDS011;3177;49.880;8.836;2023-05-13T09:25:51;2.35;;;2.08;;
6288;SDS011;3177;49.880;8.836;2023-05-13T09:28:18;2.83;;;1.95;;
6288;SDS011;3177;49.880;8.836;2023-05-13T09:30:53;2.92;;;2.30;;
6288;SDS011;3177;49.880;8.836;2023-05-13T09:33:20;4.38;;;1.88;;
6288;SDS011;3177;49.880;8.836;2023-05-13T09:35:48;2.97;;;1.90;;
6288;SDS011;3177;49.880;8.836;2023-05-13T09:38:17;3.88;;;2.50;;
6288;SDS011;3177;49.880;8.836;2023-05-13T09:40:52;5.35;;;2.33;;
6288;SDS011;3177;49.880;8.836;2023-05-13T09:43:20;2.03;;;1.92;;
6288;SDS011;3177;49.880;8.836;2023-05-13T09:45:50;2.30;;;2.10;;
6288;SDS011;3177;49.880;8.836;2023-05-13T09:48:19;4.60;;;2.40;;
6288;SDS011;3177;49.880;8.836;2023-05-13T09:50:46;3.28;;;2.30;;
6288;SDS011;3177;49.880;8.836;2023-05-13T09:53:14;2.33;;;2.05;;
6288;SDS011;3177;49.880;8.836;2023-05-13T09:55:43;2.30;;;2.10;;
6288;SDS011;3177;49.880;8.836;2023-05-13T09:58:12;3.13;;;2.20;;
6288;SDS011;3177;49.880;8.836;2023-05-13T10:00:40;2.55;;;2.03;;
6288;SDS011;3177;49.880;8.836;2023-05-13T10:03:07;2.28;;;2.10;;
6288;SDS011;3177;49.880;8.836;2023-05-13T10:05:35;3.45;;;2.15;;
6288;SDS011;3177;49.880;8.836;2023-05-13T10:08:03;2.10;;;1.90;;
6288;SDS011;3177;49.880;8.836;2023-05-13T10:10:31;2.20;;;2.00;;
6288;SDS011;3177;49.880;8.836;2023-05-13T10:12:59;2.95;;;2.40;;
6288;SDS011;3177;49.880;8.836;2023-05-13T10:15:30;4.30;;;2.20;;
6288;SDS011;3177;49.880;8.836;2023-05-13T10:17:58;2.20;;;2.10;;
6288;SDS011;3177;49.880;8.836;2023-05-13T10:20:25;2.75;;;2.13;;
6288;SDS011;3177;49.880;8.836;2023-05-13T10:22:53;3.83;;;2.10;;
6288;SDS011;3177;49.880;8.836;2023-05-13T10:25:20;2.28;;;2.03;;
6288;SDS011;3177;49.880;8.836;2023-05-13T10:27:48;2.70;;;2.40;;
6288;SDS011;3177;49.880;8.836;2023-05-13T10:30:16;2.47;;;1.92;;
6288;SDS011;3177;49.880;8.836;2023-05-13T10:32:51;2.42;;;2.13;;
6288;SDS011;3177;49.880;8.836;2023-05-13T10:35:18;2.35;;;2.00;;
6288;SDS011;3177;49.880;8.836;2023-05-13T10:37:53;1.98;;;1.73;;
6288;SDS011;3177;49.880;8.836;2023-05-13T10:40:28;2.15;;;2.00;;
6288;SDS011;3177;49.880;8.836;2023-05-13T10:43:00;4.28;;;1.92;;
6288;SDS011;3177;49.880;8.836;2023-05-13T10:45:33;2.13;;;1.92;;
6288;SDS011;3177;49.880;8.836;2023-05-13T10:48:05;2.10;;;2.00;;
6288;SDS011;3177;49.880;8.836;2023-05-13T10:50:34;3.00;;;2.15;;
6288;SDS011;3177;49.880;8.836;2023-05-13T10:53:05;1.80;;;1.70;;
6288;SDS011;3177;49.880;8.836;2023-05-13T10:55:38;2.65;;;2.03;;
6288;SDS011;3177;49.880;8.836;2023-05-13T10:58:06;3.40;;;2.13;;
6288;SDS011;3177;49.880;8.836;2023-05-13T11:00:34;2.97;;;2.05;;
6288;SDS011;3177;49.880;8.836;2023-05-13T11:03:11;3.38;;;1.77;;
6288;SDS011;3177;49.880;8.836;2023-05-13T11:05:57;5.97;;;2.97;;
6288;SDS011;3177;49.880;8.836;2023-05-13T11:08:37;3.55;;;2.08;;
6288;SDS011;3177;49.880;8.836;2023-05-13T11:11:17;2.45;;;2.03;;
6288;SDS011;3177;49.880;8.836;2023-05-13T11:13:48;2.70;;;2.15;;
6288;SDS011;3177;49.880;8.836;2023-05-13T11:16:15;2.30;;;2.13;;
6288;SDS011;3177;49.880;8.836;2023-05-13T11:18:43;3.28;;;2.03;;
6288;SDS011;3177;49.880;8.836;2023-05-13T11:21:10;3.45;;;2.10;;
6288;SDS011;3177;49.880;8.836;2023-05-13T11:23:55;2.42;;;2.22;;
6288;SDS011;3177;49.880;8.836;2023-05-13T11:26:22;3.28;;;2.00;;
6288;SDS011;3177;49.880;8.836;2023-05-13T11:28:57;2.13;;;1.95;;
6288;SDS011;3177;49.880;8.836;2023-05-13T11:31:25;1.98;;;1.88;;
6288;SDS011;3177;49.880;8.836;2023-05-13T11:34:07;2.35;;;1.90;;
6288;SDS011;3177;49.880;8.836;2023-05-13T11:36:35;4.40;;;1.90;;
6288;SDS011;3177;49.880;8.836;2023-05-13T11:39:06;2.38;;;1.73;;
6288;SDS011;3177;49.880;8.836;2023-05-13T11:41:35;2.83;;;2.00;;
6288;SDS011;3177;49.880;8.836;2023-05-13T11:44:03;2.63;;;1.88;;
6288;SDS011;3177;49.880;8.836;2023-05-13T11:46:30;2.05;;;1.75;;
6288;SDS011;3177;49.880;8.836;2023-05-13T11:48:57;1.95;;;1.80;;
6288;SDS011;3177;49.880;8.836;2023-05-13T11:51:26;2.42;;;1.98;;
6288;SDS011;3177;49.880;8.836;2023-05-13T11:53:58;4.40;;;2.00;;
6288;SDS011;3177;49.880;8.836;2023-05-13T11:56:26;2.42;;;1.98;;
6288;SDS011;3177;49.880;8.836;2023-05-13T11:58:53;1.88;;;1.73;;
6288;SDS011;3177;49.880;8.836;2023-05-13T12:01:20;2.10;;;2.00;;
6288;SDS011;3177;49.880;8.836;2023-05-13T12:03:49;3.20;;;1.83;;
6288;SDS011;3177;49.880;8.836;2023-05-13T12:06:16;1.92;;;1.67;;
6288;SDS011;3177;49.880;8.836;2023-05-13T12:08:45;2.33;;;1.65;;
6288;SDS011;3177;49.880;8.836;2023-05-13T12:11:12;3.05;;;1.77;;
6288;SDS011;3177;49.880;8.836;2023-05-13T12:13:39;2.38;;;1.80;;
6288;SDS011;3177;49.880;8.836;2023-05-13T12:16:07;3.00;;;1.98;;
6288;SDS011;3177;49.880;8.836;2023-05-13T12:18:35;4.07;;;1.85;;
6288;SDS011;3177;49.880;8.836;2023-05-13T12:21:12;7.70;;;3.22;;
6288;SDS011;3177;49.880;8.836;2023-05-13T12:23:39;2.10;;;1.90;;
6288;SDS011;3177;49.880;8.836;2023-05-13T12:26:08;1.80;;;1.70;;
6288;SDS011;3177;49.880;8.836;2023-05-13T12:28:35;2.30;;;1.70;;
6288;SDS011;3177;49.880;8.836;2023-05-13T12:31:03;3.30;;;1.98;;
6288;SDS011;3177;49.880;8.836;2023-05-13T12:33:31;2.00;;;1.83;;
6288;SDS011;3177;49.880;8.836;2023-05-13T12:38:50;2.30;;;2.10;;
6288;SDS011;3177;49.880;8.836;2023-05-13T12:41:21;12.45;;;6.22;;
6288;SDS011;3177;49.880;8.836;2023-05-13T12:43:49;12.98;;;7.15;;
6288;SDS011;3177;49.880;8.836;2023-05-13T12:46:16;34.90;;;18.35;;
6288;SDS011;3177;49.880;8.836;2023-05-13T12:48:43;3.20;;;2.08;;
6288;SDS011;3177;49.880;8.836;2023-05-13T12:51:11;4.32;;;2.22;;
6288;SDS011;3177;49.880;8.836;2023-05-13T12:53:39;3.25;;;2.10;;
6288;SDS011;3177;49.880;8.836;2023-05-13T12:56:06;2.30;;;2.10;;
6288;SDS011;3177;49.880;8.836;2023-05-13T12:58:35;2.50;;;2.05;;
6288;SDS011;3177;49.880;8.836;2023-05-13T13:01:02;4.70;;;2.17;;
6288;SDS011;3177;49.880;8.836;2023-05-13T13:03:30;2.25;;;2.05;;
6288;SDS011;3177;49.880;8.836;2023-05-13T13:05:57;2.72;;;2.00;;
6288;SDS011;3177;49.880;8.836;2023-05-13T13:08:24;2.78;;;1.98;;
6288;SDS011;3177;49.880;8.836;2023-05-13T13:10:51;2.13;;;1.92;;
6288;SDS011;3177;49.880;8.836;2023-05-13T13:13:18;3.55;;;2.10;;
6288;SDS011;3177;49.880;8.836;2023-05-13T13:15:47;7.25;;;2.92;;
6288;SDS011;3177;49.880;8.836;2023-05-13T13:18:14;2.25;;;1.75;;
6288;SDS011;3177;49.880;8.836;2023-05-13T13:20:41;2.65;;;1.95;;
6288;SDS011;3177;49.880;8.836;2023-05-13T13:23:11;3.03;;;1.83;;
6288;SDS011;3177;49.880;8.836;2023-05-13T13:25:45;4.10;;;1.60;;
6288;SDS011;3177;49.880;8.836;2023-05-13T13:28:12;2.25;;;1.88;;
6288;SDS011;3177;49.880;8.836;2023-05-13T13:30:40;3.78;;;1.80;;
6288;SDS011;3177;49.880;8.836;2023-05-13T13:33:12;2.17;;;1.98;;
6288;SDS011;3177;49.880;8.836;2023-05-13T13:35:39;2.10;;;1.58;;
6288;SDS011;3177;49.880;8.836;2023-05-13T13:38:07;1.63;;;1.52;;
6288;SDS011;3177;49.880;8.836;2023-05-13T13:40:34;1.48;;;1.30;;
6288;SDS011;3177;49.880;8.836;2023-05-13T13:43:01;2.10;;;1.60;;
6288;SDS011;3177;49.880;8.836;2023-05-13T13:45:29;2.03;;;1.77;;
6288;SDS011;3177;49.880;8.836;2023-05-13T13:47:56;1.98;;;1.50;;
6288;SDS011;3177;49.880;8.836;2023-05-13T13:50:24;1.65;;;1.48;;
6288;SDS011;3177;49.880;8.836;2023-05-13T13:52:53;2.35;;;1.30;;
6288;SDS011;3177;49.880;8.836;2023-05-13T13:55:20;1.70;;;1.60;;
6288;SDS011;3177;49.880;8.836;2023-05-13T13:57:48;1.65;;;1.55;;
6288;SDS011;3177;49.880;8.836;2023-05-13T14:00:15;1.55;;;1.45;;
6288;SDS011;3177;49.880;8.836;2023-05-13T14:02:43;1.65;;;1.48;;
6288;SDS011;3177;49.880;8.836;2023-05-13T14:05:10;1.83;;;1.52;;
6288;SDS011;3177;49.880;8.836;2023-05-13T14:07:38;1.80;;;1.70;;
6288;SDS011;3177;49.880;8.836;2023-05-13T14:10:06;1.60;;;1.40;;
6288;SDS011;3177;49.880;8.836;2023-05-13T14:12:33;1.80;;;1.70;;
6288;SDS011;3177;49.880;8.836;2023-05-13T14:15:00;2.20;;;1.83;;
6288;SDS011;3177;49.880;8.836;2023-05-13T14:17:28;1.63;;;1.52;;
6288;SDS011;3177;49.880;8.836;2023-05-13T14:19:55;1.90;;;1.80;;
6288;SDS011;3177;49.880;8.836;2023-05-13T14:22:22;3.15;;;1.52;;
6288;SDS011;3177;49.880;8.836;2023-05-13T14:24:51;2.60;;;1.70;;
6288;SDS011;3177;49.880;8.836;2023-05-13T14:27:18;1.55;;;1.45;;
6288;SDS011;3177;49.880;8.836;2023-05-13T14:29:46;1.83;;;1.67;;
6288;SDS011;3177;49.880;8.836;2023-05-13T14:32:14;1.70;;;1.60;;
6288;SDS011;3177;49.880;8.836;2023-05-13T14:34:41;1.73;;;1.63;;
6288;SDS011;3177;49.880;8.836;2023-05-13T14:37:08;1.80;;;1.70;;
6288;SDS011;3177;49.880;8.836;2023-05-13T14:39:35;2.17;;;1.77;;
6288;SDS011;3177;49.880;8.836;2023-05-13T14:42:04;1.92;;;1.73;;
6288;SDS011;3177;49.880;8.836;2023-05-13T14:44:32;3.40;;;2.10;;
6288;SDS011;3177;49.880;8.836;2023-05-13T14:47:00;2.03;;;1.83;;
6288;SDS011;3177;49.880;8.836;2023-05-13T14:49:27;2.97;;;2.03;;
6288;SDS011;3177;49.880;8.836;2023-05-13T14:51:54;2.53;;;1.88;;
6288;SDS011;3177;49.880;8.836;2023-05-13T14:54:22;2.08;;;1.98;;
6288;SDS011;3177;49.880;8.836;2023-05-13T14:56:49;2.10;;;1.90;;
6288;SDS011;3177;49.880;8.836;2023-05-13T14:59:18;2.90;;;2.00;;
6288;SDS011;3177;49.880;8.836;2023-05-13T15:01:45;2.10;;;1.98;;
6288;SDS011;3177;49.880;8.836;2023-05-13T15:04:12;5.20;;;2.25;;
6288;SDS011;3177;49.880;8.836;2023-05-13T15:06:39;1.75;;;1.65;;
6288;SDS011;3177;49.880;8.836;2023-05-13T15:09:06;1.73;;;1.63;;
6288;SDS011;3177;49.880;8.836;2023-05-13T15:11:33;3.05;;;2.75;;
6288;SDS011;3177;49.880;8.836;2023-05-13T15:14:03;2.30;;;1.80;;
6288;SDS011;3177;49.880;8.836;2023-05-13T15:16:32;1.95;;;1.85;;
6288;SDS011;3177;49.880;8.836;2023-05-13T15:18:59;1.80;;;1.70;;
6288;SDS011;3177;49.880;8.836;2023-05-13T15:21:26;2.42;;;2.10;;
6288;SDS011;3177;49.880;8.836;2023-05-13T15:23:53;3.20;;;1.70;;